Time;durP1;ratioP1;P1;durP2;ratioP2;P2;SDS_P1;SDS_P2;PMS_P1;PMS_P2;Temp;Humidity;BMP_temperature;BMP_pressure;BME280_temperature;BME280_humidity;BME280_pressure;Samples;Min_cycle;Max_cycle;Signal;HPM_P1;HPM_P2
2023/11/11 00:03:34;;;;;;;;;;;;;;;20.16;38.73;94270.59;10465627;28;2570;-59
2023/11/11 00:08:35;;;;;;;;;;;;;;;20.13;38.86;94257.28;10470010;28;2642;-60
2023/11/11 00:13:35;;;;;;;;;;;;;;;20.13;38.57;94257.28;10474346;28;2608;-59
2023/11/11 00:18:36;;;;;;;;;;;;;;;20.09;38.53;94251.06;10472993;28;2674;-60
2023/11/11 00:23:37;;;;;;;;;;;;;;;20.08;38.65;94234.50;10476285;28;2635;-60
2023/11/11 00:28:40;;;;;;;;;;;;;;;20.04;38.57;94220.41;10450030;28;2596;-60
2023/11/11 00:33:42;;;;;;;;;;;;;;;20.02;38.53;94222.59;10476945;28;2672;-60
2023/11/11 00:38:44;;;;;;;;;;;;;;;20.00;38.60;94224.75;10477133;28;2620;-60
2023/11/11 00:43:45;;;;;;;;;;;;;;;19.99;38.53;94222.44;10478149;28;5038;-60
2023/11/11 00:48:45;;;;;;;;;;;;;;;19.97;38.61;94219.31;10458067;28;2632;-60
2023/11/11 00:53:45;;;;;;;;;;;;;;;19.94;38.49;94230.44;10461347;28;2631;-60
2023/11/11 00:58:45;;;;;;;;;;;;;;;19.93;38.63;94228.88;10492677;28;2580;-60
2023/11/11 01:03:46;;;;;;;;;;;;;;;19.90;38.67;94234.75;10459057;28;2620;-60
2023/11/11 01:08:47;;;;;;;;;;;;;;;19.88;38.30;94242.97;10485592;28;2609;-59
2023/11/11 01:13:48;;;;;;;;;;;;;;;19.86;38.55;94241.72;10474549;28;2555;-60
2023/11/11 01:18:48;;;;;;;;;;;;;;;19.81;38.56;94232.09;10481090;28;2642;-60
2023/11/11 01:23:49;;;;;;;;;;;;;;;19.82;38.16;94238.94;10470902;28;2581;-59
2023/11/11 01:28:49;;;;;;;;;;;;;;;19.80;38.50;94220.06;10467166;28;2682;-60
2023/11/11 01:33:50;;;;;;;;;;;;;;;19.79;38.31;94215.06;10482822;28;2596;-60
2023/11/11 01:38:50;;;;;;;;;;;;;;;19.77;38.44;94222.50;10478503;28;2548;-59
2023/11/11 01:43:50;;;;;;;;;;;;;;;19.73;38.17;94219.72;10477828;28;4635;-59
2023/11/11 01:48:51;;;;;;;;;;;;;;;19.73;38.42;94218.94;10481242;28;2560;-59
2023/11/11 01:53:51;;;;;;;;;;;;;;;19.72;38.28;94209.50;10479590;28;2592;-60
2023/11/11 01:58:51;;;;;;;;;;;;;;;19.69;38.26;94225.88;10463117;28;2614;-59
2023/11/11 02:03:52;;;;;;;;;;;;;;;19.67;38.15;94222.78;10456666;28;2572;-59
2023/11/11 02:08:52;;;;;;;;;;;;;;;19.65;38.02;94225.72;10458615;28;2622;-59
2023/11/11 02:13:52;;;;;;;;;;;;;;;19.64;38.11;94228.66;10482108;28;2682;-59
2023/11/11 02:18:53;;;;;;;;;;;;;;;19.61;38.18;94219.50;10458322;28;2687;-58
2023/11/11 02:23:53;;;;;;;;;;;;;;;19.60;37.91;94214.56;10476730;28;2604;-59
2023/11/11 02:28:55;;;;;;;;;;;;;;;19.59;38.15;94199.84;10463512;28;2624;-59
2023/11/11 02:33:55;;;;;;;;;;;;;;;19.56;38.05;94200.47;10476640;28;2634;-60
2023/11/11 02:38:55;;;;;;;;;;;;;;;19.53;38.14;94206.34;10472272;28;2591;-59
2023/11/11 02:43:56;;;;;;;;;;;;;;;19.52;38.07;94202.94;10479990;28;5116;-59
2023/11/11 02:48:56;;;;;;;;;;;;;;;19.51;37.95;94201.38;10450148;28;2622;-59
2023/11/11 02:53:56;;;;;;;;;;;;;;;19.47;37.76;94201.19;10476505;28;2611;-60
2023/11/11 02:58:56;;;;;;;;;;;;;;;19.45;37.94;94211.25;10485330;28;2682;-59
2023/11/11 03:03:57;;;;;;;;;;;;;;;19.44;38.08;94208.91;10480359;28;2586;-60
2023/11/11 03:08:57;;;;;;;;;;;;;;;19.43;37.86;94207.38;10478023;28;2605;-60
2023/11/11 03:14:00;;;;;;;;;;;;;;;19.41;37.93;94209.53;10476731;28;2715;-59
2023/11/11 03:19:01;;;;;;;;;;;;;;;19.40;37.73;94200.88;10481016;28;2591;-59
2023/11/11 03:24:04;;;;;;;;;;;;;;;19.38;38.00;94212.75;10478498;28;2532;-59
2023/11/11 03:29:04;;;;;;;;;;;;;;;19.36;38.00;94197.31;10473624;28;2587;-59
2023/11/11 03:34:05;;;;;;;;;;;;;;;19.35;37.89;94218.63;10471145;28;2714;-59
2023/11/11 03:39:05;;;;;;;;;;;;;;;19.31;37.66;94205.28;10458620;28;2683;-59
2023/11/11 03:44:05;;;;;;;;;;;;;;;19.32;37.88;94208.69;10476296;28;4836;-60
2023/11/11 03:49:06;;;;;;;;;;;;;;;19.30;37.76;94205.59;10471181;28;2715;-59
2023/11/11 03:54:06;;;;;;;;;;;;;;;19.29;37.56;94207.44;10470938;28;2615;-60
2023/11/11 03:59:06;;;;;;;;;;;;;;;19.27;37.63;94214.84;10482607;28;2596;-59
2023/11/11 04:04:08;;;;;;;;;;;;;;;19.25;37.51;94205.69;10482082;28;2604;-60
2023/11/11 04:09:09;;;;;;;;;;;;;;;19.23;37.59;94206.00;10473192;28;2566;-59
2023/11/11 04:14:10;;;;;;;;;;;;;;;19.21;37.47;94226.56;10473024;28;2668;-59
2023/11/11 04:19:10;;;;;;;;;;;;;;;19.20;37.47;94211.88;10474123;28;2514;-59
2023/11/11 04:24:13;;;;;;;;;;;;;;;19.18;37.63;94216.66;10472453;28;2569;-59
2023/11/11 04:29:13;;;;;;;;;;;;;;;19.17;37.41;94228.22;10469844;28;2565;-59
2023/11/11 04:34:13;;;;;;;;;;;;;;;19.16;37.58;94225.91;10474823;28;2609;-59
2023/11/11 04:39:14;;;;;;;;;;;;;;;19.14;37.35;94235.94;10472221;28;2581;-59
2023/11/11 04:44:15;;;;;;;;;;;;;;;19.12;37.50;94232.84;10489310;28;5006;-60
2023/11/11 04:49:15;;;;;;;;;;;;;;;19.10;37.43;94246.25;10474871;28;2577;-59
2023/11/11 04:54:15;;;;;;;;;;;;;;;19.09;37.61;94247.34;10457152;28;2701;-59
2023/11/11 04:59:16;;;;;;;;;;;;;;;19.07;37.60;94249.50;10475138;28;2588;-59
2023/11/11 05:04:17;;;;;;;;;;;;;;;19.07;37.28;94246.09;10472036;28;2664;-59
2023/11/11 05:09:19;;;;;;;;;;;;;;;19.08;37.79;94253.66;10470029;28;2592;-58
2023/11/11 05:14:19;;;;;;;;;;;;;;;19.12;37.93;94267.78;10478601;28;3016;-58
2023/11/11 05:19:20;;;;;;;;;;;;;;;19.19;38.10;94280.47;10474301;28;2621;-59
2023/11/11 05:24:20;;;;;;;;;;;;;;;19.27;38.57;94291.03;10472815;28;2602;-59
2023/11/11 05:29:22;;;;;;;;;;;;;;;19.38;38.22;94281.06;10451145;28;2656;-58
2023/11/11 05:34:22;;;;;;;;;;;;;;;19.45;38.32;94292.69;10465809;28;2529;-58
2023/11/11 05:39:22;;;;;;;;;;;;;;;19.54;38.32;94310.41;10465204;28;2628;-59
2023/11/11 05:44:23;;;;;;;;;;;;;;;19.61;38.05;94323.88;10462544;28;4792;-59
2023/11/11 05:49:23;;;;;;;;;;;;;;;19.68;38.31;94340.00;10481297;28;2630;-60
2023/11/11 05:54:23;;;;;;;;;;;;;;;19.74;37.96;94338.78;10477402;28;2615;-59
2023/11/11 05:59:26;;;;;;;;;;;;;;;19.79;38.06;94351.81;10454750;28;2605;-59
2023/11/11 06:04:26;;;;;;;;;;;;;;;19.85;38.14;94374.25;10480048;28;2577;-57
2023/11/11 06:09:26;;;;;;;;;;;;;;;19.91;37.49;94383.56;10477214;28;2614;-59
2023/11/11 06:14:27;;;;;;;;;;;;;;;19.96;37.95;94407.13;10475403;28;2580;-59
2023/11/11 06:19:27;;;;;;;;;;;;;;;19.99;37.73;94388.88;10479491;28;2586;-59
2023/11/11 06:24:27;;;;;;;;;;;;;;;20.03;37.39;94389.06;10442566;28;2589;-59
2023/11/11 06:29:28;;;;;;;;;;;;;;;20.06;37.43;94391.88;10473079;28;2638;-61
2023/11/11 06:34:28;;;;;;;;;;;;;;;20.11;37.48;94404.13;10479613;28;2589;-59
2023/11/11 06:39:30;;;;;;;;;;;;;;;20.13;37.35;94418.50;10465834;28;2639;-59
2023/11/11 06:44:30;;;;;;;;;;;;;;;20.15;37.48;94418.22;10475706;28;4748;-61
2023/11/11 06:49:31;;;;;;;;;;;;;;;20.18;37.81;94436.81;10478201;28;2645;-59
2023/11/11 06:54:31;;;;;;;;;;;;;;;20.22;37.48;94440.41;10475900;28;3008;-59
2023/11/11 06:59:32;;;;;;;;;;;;;;;20.23;37.15;94441.19;10475841;28;2676;-60
2023/11/11 07:04:32;;;;;;;;;;;;;;;20.26;36.98;94448.47;10477016;28;2780;-59
2023/11/11 07:09:33;;;;;;;;;;;;;;;20.31;37.04;94444.94;10477416;28;2648;-59
2023/11/11 07:14:34;;;;;;;;;;;;;;;20.31;36.93;94472.03;10473953;28;2720;-59
2023/11/11 07:19:35;;;;;;;;;;;;;;;20.36;36.89;94484.28;10475717;28;2649;-59
2023/11/11 07:24:35;;;;;;;;;;;;;;;20.36;37.08;94500.84;10469346;28;2557;-59
2023/11/11 07:29:35;;;;;;;;;;;;;;;20.38;36.98;94505.81;10474199;28;2660;-59
2023/11/11 07:34:36;;;;;;;;;;;;;;;20.38;36.78;94501.31;10470175;28;2579;-60
2023/11/11 07:39:39;;;;;;;;;;;;;;;20.40;36.76;94512.34;10472862;28;2642;-60
2023/11/11 07:44:39;;;;;;;;;;;;;;;20.41;36.79;94519.16;10481240;28;4949;-59
2023/11/11 07:49:41;;;;;;;;;;;;;;;20.43;36.34;94521.47;10458258;28;2581;-59
2023/11/11 07:54:41;;;;;;;;;;;;;;;20.43;37.23;94543.31;10472216;28;2702;-59
2023/11/11 07:59:44;;;;;;;;;;;;;;;20.45;37.04;94543.78;10472273;28;2640;-59
2023/11/11 08:04:44;;;;;;;;;;;;;;;20.46;37.86;94569.03;10469466;28;2692;-59
2023/11/11 08:09:45;;;;;;;;;;;;;;;20.48;37.99;94569.53;10468307;28;2645;-61
2023/11/11 08:14:45;;;;;;;;;;;;;;;20.47;37.70;94570.59;10474012;28;2703;-59
2023/11/11 08:19:46;;;;;;;;;;;;;;;20.47;36.64;94575.84;10457236;28;2723;-59
2023/11/11 08:24:47;;;;;;;;;;;;;;;20.47;36.33;94580.34;10453816;28;2541;-60
2023/11/11 08:29:50;;;;;;;;;;;;;;;20.46;37.24;94599.84;10469069;28;2722;-59
2023/11/11 08:34:50;;;;;;;;;;;;;;;20.43;37.11;94597.81;10462976;28;2968;-61
2023/11/11 08:39:50;;;;;;;;;;;;;;;20.43;36.39;94617.00;10450471;28;2637;-59
2023/11/11 08:44:51;;;;;;;;;;;;;;;20.41;37.34;94615.75;10457839;28;4831;-60
2023/11/11 08:49:52;;;;;;;;;;;;;;;20.38;37.76;94621.63;10474037;28;2602;-60
2023/11/11 08:54:53;;;;;;;;;;;;;;;20.34;37.53;94633.81;10468235;28;2647;-59
2023/11/11 08:59:53;;;;;;;;;;;;;;;20.30;37.59;94638.13;10446925;28;2659;-58
2023/11/11 09:04:53;;;;;;;;;;;;;;;20.27;38.02;94636.88;10449512;28;2591;-58
2023/11/11 09:09:54;;;;;;;;;;;;;;;20.26;38.26;94640.56;10460299;28;2615;-58
2023/11/11 09:14:56;;;;;;;;;;;;;;;20.26;38.11;94646.59;10473739;28;2580;-58
2023/11/11 09:19:57;;;;;;;;;;;;;;;20.26;38.31;94635.28;10478316;28;2521;-58
2023/11/11 09:24:58;;;;;;;;;;;;;;;20.26;37.89;94630.81;10473919;28;2520;-58
2023/11/11 09:29:58;;;;;;;;;;;;;;;20.27;37.96;94642.91;10470032;28;2570;-58
2023/11/11 09:34:59;;;;;;;;;;;;;;;20.31;38.07;94643.09;10470227;28;2567;-58
2023/11/11 09:40:03;;;;;;;;;;;;;;;20.33;37.81;94651.47;10458582;28;2660;-58
2023/11/11 09:45:04;;;;;;;;;;;;;;;20.35;37.88;94664.31;10473032;28;4717;-59
2023/11/11 09:50:05;;;;;;;;;;;;;;;20.38;38.91;94667.13;10478204;28;2627;-58
2023/11/11 09:55:06;;;;;;;;;;;;;;;20.42;38.08;94678.66;10497669;28;1949;-59
2023/11/11 10:00:10;;;;;;;;;;;;;;;20.43;37.91;94672.28;10458707;28;2275;-58
2023/11/11 10:05:10;;;;;;;;;;;;;;;20.49;38.10;94679.00;10481847;28;1595;-56
2023/11/11 10:10:12;;;;;;;;;;;;;;;20.51;38.04;94670.78;10488130;28;1909;-59
2023/11/11 10:15:12;;;;;;;;;;;;;;;20.52;37.93;94678.41;10484282;28;1356;-59
2023/11/11 10:20:15;;;;;;;;;;;;;;;20.52;37.93;94667.88;10483689;28;1496;-60
2023/11/11 10:25:17;;;;;;;;;;;;;;;20.52;37.74;94670.50;10478648;28;1575;-59
2023/11/11 10:30:23;;;;;;;;;;;;;;;20.53;38.86;94661.53;10471996;28;1918;-59
2023/11/11 10:35:24;;;;;;;;;;;;;;;20.53;37.71;94663.38;10474500;28;1468;-59
2023/11/11 10:40:24;;;;;;;;;;;;;;;20.55;38.52;94672.53;10464866;28;2183;-55
2023/11/11 10:45:25;;;;;;;;;;;;;;;20.60;38.40;94677.69;10464830;28;4864;-54
2023/11/11 10:50:25;;;;;;;;;;;;;;;20.59;38.50;94668.22;10480011;28;1906;-56
2023/11/11 10:55:26;;;;;;;;;;;;;;;20.57;38.66;94674.84;10480346;28;2621;-56
2023/11/11 11:00:26;;;;;;;;;;;;;;;20.61;38.81;94670.56;10466203;28;2715;-48
2023/11/11 11:05:38;;;;;;;;;;;;;;;20.57;39.98;94675.63;10482933;28;1833;-47
2023/11/11 11:10:45;;;;;;;;;;;;;;;20.60;39.24;94690.06;10484171;28;2647;-51
2023/11/11 11:15:45;;;;;;;;;;;;;;;20.58;39.62;94687.75;10478155;28;1520;-49
2023/11/11 11:20:45;;;;;;;;;;;;;;;20.54;39.90;94680.72;10464143;28;2557;-51
2023/11/11 11:25:48;;;;;;;;;;;;;;;20.59;40.21;94684.03;10467372;28;2954;-51
2023/11/11 11:30:55;;;;;;;;;;;;;;;20.57;40.19;94680.91;10460232;28;2635;-53
2023/11/11 11:36:01;;;;;;;;;;;;;;;20.50;40.35;94675.28;10453414;28;2558;-47
2023/11/11 11:41:03;;;;;;;;;;;;;;;20.50;40.53;94682.41;10478834;28;1853;-47
2023/11/11 11:46:04;;;;;;;;;;;;;;;20.48;40.17;94682.72;10476168;28;4781;-52
2023/11/11 11:51:12;;;;;;;;;;;;;;;20.48;40.33;94682.72;10478380;28;1973;-46
2023/11/11 11:56:31;;;;;;;;;;;;;;;20.52;39.40;94677.63;10465651;28;1482;-50
2023/11/11 12:01:32;;;;;;;;;;;;;;;20.49;39.13;94676.34;10477505;28;1702;-50
2023/11/11 12:06:38;;;;;;;;;;;;;;;20.51;39.72;94686.59;10481620;28;1951;-47
2023/11/11 12:11:38;;;;;;;;;;;;;;;20.53;40.42;94673.91;10476902;28;1973;-48
2023/11/11 12:16:39;;;;;;;;;;;;;;;20.55;40.64;94677.78;10482729;28;1617;-54
2023/11/11 12:21:43;;;;;;;;;;;;;;;20.54;40.49;94681.53;10465265;28;1426;-55
2023/11/11 12:26:43;;;;;;;;;;;;;;;20.53;40.09;94690.47;10476481;28;1749;-50
2023/11/11 12:31:47;;;;;;;;;;;;;;;20.55;39.99;94732.28;10483794;28;2513;-52
2023/11/11 12:36:47;;;;;;;;;;;;;;;20.52;40.03;94719.75;10471856;28;1425;-50
2023/11/11 12:41:51;;;;;;;;;;;;;;;20.55;39.93;94719.91;10481272;28;1445;-52
2023/11/11 12:46:51;;;;;;;;;;;;;;;20.57;39.87;94723.03;10442991;28;5051;-51
2023/11/11 12:51:55;;;;;;;;;;;;;;;20.62;40.43;94708.97;10465215;28;1906;-54
2023/11/11 12:56:56;;;;;;;;;;;;;;;20.65;40.41;94714.41;10476516;28;1813;-52
2023/11/11 13:01:59;;;;;;;;;;;;;;;20.62;40.07;94720.31;10473255;28;1802;-54
2023/11/11 13:07:00;;;;;;;;;;;;;;;20.62;39.18;94725.56;10461039;28;1437;-52
2023/11/11 13:12:01;;;;;;;;;;;;;;;20.62;38.91;94709.75;10475855;28;1910;-53
2023/11/11 13:17:04;;;;;;;;;;;;;;;20.58;39.38;94714.06;10478914;28;1412;-54
2023/11/11 13:22:09;;;;;;;;;;;;;;;20.58;39.17;94719.34;10459086;28;1536;-52
2023/11/11 13:27:09;;;;;;;;;;;;;;;20.56;39.48;94725.97;10473400;28;2351;-49
2023/11/11 13:32:11;;;;;;;;;;;;;;;20.56;39.33;94721.50;10447293;28;1608;-54
2023/11/11 13:37:12;;;;;;;;;;;;;;;20.51;39.35;94721.59;10476216;28;1538;-53
2023/11/11 13:42:15;;;;;;;;;;;;;;;20.51;39.26;94718.97;10459378;28;4888;-51
2023/11/11 13:47:16;;;;;;;;;;;;;;;20.51;38.88;94728.69;10472054;28;1910;-52
2023/11/11 13:52:16;;;;;;;;;;;;;;;20.49;38.79;94729.00;10463132;28;1484;-52
2023/11/11 13:57:20;;;;;;;;;;;;;;;20.48;38.85;94724.84;10459886;28;1494;-52
2023/11/11 14:02:20;;;;;;;;;;;;;;;20.46;39.04;94734.88;10476863;28;1713;-53
2023/11/11 14:07:20;;;;;;;;;;;;;;;20.46;38.83;94737.50;10483661;28;1977;-49
2023/11/11 14:12:21;;;;;;;;;;;;;;;20.45;39.19;94749.09;10478283;28;1507;-53
2023/11/11 14:17:21;;;;;;;;;;;;;;;20.45;39.15;94751.72;10481826;28;1409;-51
2023/11/11 14:22:22;;;;;;;;;;;;;;;20.45;39.70;94770.16;10483182;28;1441;-52
2023/11/11 14:27:22;;;;;;;;;;;;;;;20.42;39.40;94767.34;10481695;28;2322;-55
2023/11/11 14:32:23;;;;;;;;;;;;;;;20.50;38.51;94771.91;10468907;28;1344;-51
2023/11/11 14:37:24;;;;;;;;;;;;;;;20.59;38.21;94763.00;10477433;28;1465;-52
2023/11/11 14:42:24;;;;;;;;;;;;;;;20.67;38.16;94775.47;10484159;28;1550;-53
2023/11/11 14:47:24;;;;;;;;;;;;;;;20.76;37.31;94778.19;10479574;28;1906;-51
2023/11/11 14:52:24;;;;;;;;;;;;;;;20.86;38.04;94775.31;10463287;28;1668;-50
2023/11/11 14:57:25;;;;;;;;;;;;;;;20.93;38.11;94780.97;10477310;28;1426;-52
2023/11/11 15:02:26;;;;;;;;;;;;;;;20.98;38.61;94786.88;10472593;28;1512;-49
2023/11/11 15:07:28;;;;;;;;;;;;;;;21.08;37.83;94800.94;10471691;28;2395;-49
2023/11/11 15:12:29;;;;;;;;;;;;;;;21.18;37.88;94805.97;10465848;28;1444;-52
2023/11/11 15:17:29;;;;;;;;;;;;;;;21.23;37.42;94819.00;10482139;28;1523;-51
2023/11/11 15:22:29;;;;;;;;;;;;;;;21.28;36.53;94818.91;10472287;28;1682;-51
2023/11/11 15:27:29;;;;;;;;;;;;;;;21.32;36.43;94827.78;10481568;28;1975;-50
2023/11/11 15:32:30;;;;;;;;;;;;;;;21.35;36.85;94827.94;10481585;28;1369;-53
2023/11/11 15:37:31;;;;;;;;;;;;;;;21.37;36.46;94830.28;10479700;28;1839;-54
2023/11/11 15:42:31;;;;;;;;;;;;;;;21.40;36.79;94835.75;10481618;28;4820;-48
2023/11/11 15:47:31;;;;;;;;;;;;;;;21.43;36.83;94837.00;10443769;28;2304;-52
2023/11/11 15:52:32;;;;;;;;;;;;;;;21.45;36.48;94848.03;10477368;28;1571;-50
2023/11/11 15:57:33;;;;;;;;;;;;;;;21.46;36.13;94850.34;10469062;28;1504;-53
2023/11/11 16:02:36;;;;;;;;;;;;;;;21.47;36.20;94851.94;10478945;28;1666;-52
2023/11/11 16:07:36;;;;;;;;;;;;;;;21.50;35.75;94861.06;10474002;28;1977;-52
2023/11/11 16:12:36;;;;;;;;;;;;;;;21.52;36.23;94875.53;10480291;28;1594;-52
2023/11/11 16:17:37;;;;;;;;;;;;;;;21.55;36.59;94872.31;10482712;28;1584;-53
2023/11/11 16:22:37;;;;;;;;;;;;;;;21.55;36.30;94876.78;10478475;28;1630;-52
2023/11/11 16:27:38;;;;;;;;;;;;;;;21.54;35.84;94883.13;10478065;28;1967;-51
2023/11/11 16:32:38;;;;;;;;;;;;;;;21.55;35.95;94889.97;10461620;28;2913;-53
2023/11/11 16:37:39;;;;;;;;;;;;;;;21.56;35.58;94896.78;10474000;28;1542;-51
2023/11/11 16:42:45;;;;;;;;;;;;;;;21.56;35.93;94899.44;10476687;28;5206;-53
2023/11/11 16:47:45;;;;;;;;;;;;;;;21.54;35.77;94899.72;10471541;28;1989;-50
2023/11/11 16:52:46;;;;;;;;;;;;;;;21.57;35.54;94906.28;10463849;28;2614;-52
2023/11/11 16:57:46;;;;;;;;;;;;;;;21.57;35.67;94908.91;10453916;28;2671;-53
2023/11/11 17:02:46;;;;;;;;;;;;;;;21.56;35.46;94910.75;10463061;28;2606;-53
2023/11/11 17:07:49;;;;;;;;;;;;;;;21.56;35.39;94899.44;10451823;28;2601;-50
2023/11/11 17:12:50;;;;;;;;;;;;;;;21.58;35.86;94902.53;10457147;28;2768;-54
2023/11/11 17:17:52;;;;;;;;;;;;;;;21.57;35.33;94901.00;10468969;28;2692;-50
2023/11/11 17:22:52;;;;;;;;;;;;;;;21.59;34.86;94907.53;10453479;28;2767;-52
2023/11/11 17:27:52;;;;;;;;;;;;;;;21.59;35.12;94917.31;10472156;28;2657;-54
2023/11/11 17:32:53;;;;;;;;;;;;;;;21.58;34.77;94921.00;10475011;28;2605;-52
2023/11/11 17:37:54;;;;;;;;;;;;;;;21.58;34.86;94923.63;10477155;28;2794;-52
2023/11/11 17:42:54;;;;;;;;;;;;;;;21.57;35.48;94933.44;10470759;28;2917;-51
2023/11/11 17:47:54;;;;;;;;;;;;;;;21.49;35.16;94934.16;10460477;28;2724;-53
2023/11/11 17:52:55;;;;;;;;;;;;;;;21.44;35.28;94936.88;10444362;28;2661;-51
2023/11/11 17:57:56;;;;;;;;;;;;;;;21.38;35.78;94940.72;10471014;28;2650;-52
2023/11/11 18:02:57;;;;;;;;;;;;;;;21.32;35.89;94949.03;10473779;28;2671;-54
2023/11/11 18:07:57;;;;;;;;;;;;;;;21.38;35.99;94950.47;10476667;28;2687;-51
2023/11/11 18:12:58;;;;;;;;;;;;;;;21.46;36.12;94962.94;10478235;28;2685;-53
2023/11/11 18:18:00;;;;;;;;;;;;;;;21.44;36.31;94957.19;10478384;28;2593;-49
2023/11/11 18:23:00;;;;;;;;;;;;;;;21.46;36.78;94957.66;10484447;28;1923;-54
2023/11/11 18:28:00;;;;;;;;;;;;;;;21.44;37.42;94950.06;10487519;28;1983;-53
2023/11/11 18:33:01;;;;;;;;;;;;;;;21.46;37.10;94947.13;10487918;28;1500;-53
2023/11/11 18:38:01;;;;;;;;;;;;;;;21.43;37.17;94950.38;10487138;28;2451;-52
2023/11/11 18:43:03;;;;;;;;;;;;;;;21.42;36.89;94964.63;10481958;28;4606;-51
2023/11/11 18:48:03;;;;;;;;;;;;;;;21.37;37.32;94957.59;10481905;28;1969;-53
2023/11/11 18:53:04;;;;;;;;;;;;;;;21.35;37.11;94965.03;10471586;28;1558;-51
2023/11/11 18:58:04;;;;;;;;;;;;;;;21.35;37.66;94967.66;10498682;28;1519;-53
2023/11/11 19:03:06;;;;;;;;;;;;;;;21.31;37.90;94966.69;10481476;28;1537;-49
2023/11/11 19:08:06;;;;;;;;;;;;;;;21.34;37.56;94974.03;10477622;28;1905;-51
2023/11/11 19:13:07;;;;;;;;;;;;;;;21.35;37.56;94969.53;10477904;28;1441;-50
2023/11/11 19:18:07;;;;;;;;;;;;;;;21.34;37.36;94981.16;10461754;28;1489;-52
2023/11/11 19:23:08;;;;;;;;;;;;;;;21.32;37.83;94983.28;10478106;28;1619;-51
2023/11/11 19:28:08;;;;;;;;;;;;;;;21.35;37.62;94988.00;10478919;28;1981;-51
2023/11/11 19:33:09;;;;;;;;;;;;;;;21.34;37.48;94986.41;10477486;28;2415;-53
2023/11/11 19:38:09;;;;;;;;;;;;;;;21.35;37.29;94980.06;10459489;28;2462;-51
2023/11/11 19:43:09;;;;;;;;;;;;;;;21.32;37.57;94991.19;10454780;28;4649;-48
2023/11/11 19:48:10;;;;;;;;;;;;;;;21.34;37.55;94989.06;10457990;28;2803;-51
2023/11/11 19:53:12;;;;;;;;;;;;;;;21.34;36.65;94994.31;10473249;28;2632;-53
2023/11/11 19:58:16;;;;;;;;;;;;;;;21.33;37.15;94993.53;10460168;28;2616;-53
2023/11/11 20:03:17;;;;;;;;;;;;;;;21.35;37.47;94998.53;10473091;28;2598;-53
2023/11/11 20:08:17;;;;;;;;;;;;;;;21.34;37.64;95000.38;10469715;28;2616;-51
2023/11/11 20:13:18;;;;;;;;;;;;;;;21.36;37.31;95008.00;10475901;28;2697;-52
2023/11/11 20:18:18;;;;;;;;;;;;;;;21.34;37.46;95004.88;10478872;28;2803;-52
2023/11/11 20:23:18;;;;;;;;;;;;;;;21.34;37.65;95008.28;10472480;28;2605;-53
2023/11/11 20:28:19;;;;;;;;;;;;;;;21.37;37.98;95009.56;10456264;28;2630;-52
2023/11/11 20:33:19;;;;;;;;;;;;;;;21.34;37.92;95010.13;10479198;28;2710;-53
2023/11/11 20:38:19;;;;;;;;;;;;;;;21.36;38.12;95006.13;10474228;28;1483;-51
2023/11/11 20:43:20;;;;;;;;;;;;;;;21.34;38.06;95012.78;10467163;28;4598;-54
2023/11/11 20:48:20;;;;;;;;;;;;;;;21.37;38.12;95020.09;10472234;28;2566;-53
2023/11/11 20:53:20;;;;;;;;;;;;;;;21.35;37.92;95027.53;10467530;28;2537;-52
2023/11/11 20:58:20;;;;;;;;;;;;;;;21.35;37.88;95022.25;10472497;28;2601;-54
2023/11/11 21:03:21;;;;;;;;;;;;;;;21.32;38.18;95028.09;10469754;28;2646;-53
2023/11/11 21:08:21;;;;;;;;;;;;;;;21.26;38.19;95018.75;10472877;28;2771;-54
2023/11/11 21:13:21;;;;;;;;;;;;;;;21.25;38.18;95017.16;10480413;28;2627;-56
2023/11/11 21:18:22;;;;;;;;;;;;;;;21.22;37.92;95018.56;10478754;28;2590;-52
2023/11/11 21:23:22;;;;;;;;;;;;;;;21.19;38.49;95018.34;10474873;28;2732;-53
2023/11/11 21:28:22;;;;;;;;;;;;;;;21.15;38.57;95018.16;10485623;28;2626;-54
2023/11/11 21:33:22;;;;;;;;;;;;;;;21.14;39.71;95010.56;10478639;28;2616;-55
2023/11/11 21:38:24;;;;;;;;;;;;;;;21.14;38.21;95010.56;10471265;28;2697;-53
2023/11/11 21:43:24;;;;;;;;;;;;;;;21.06;38.65;95014.69;10473929;28;4757;-52
2023/11/11 21:48:24;;;;;;;;;;;;;;;20.99;38.69;95007.13;10460537;28;2615;-50
2023/11/11 21:53:24;;;;;;;;;;;;;;;20.98;38.88;95002.13;10473442;28;2638;-55
2023/11/11 21:58:34;;;;;;;;;;;;;;;20.93;40.72;95002.25;10483021;28;2609;-50
2023/11/11 22:03:34;;;;;;;;;;;;;;;20.91;40.21;94999.13;10447501;28;2643;-49
2023/11/11 22:08:35;;;;;;;;;;;;;;;20.86;40.48;94994.72;10481289;28;2588;-51
2023/11/11 22:13:36;;;;;;;;;;;;;;;20.84;41.62;94996.09;10469521;28;2657;-52
2023/11/11 22:18:36;;;;;;;;;;;;;;;20.83;40.34;94986.66;10461646;28;2593;-50
2023/11/11 22:23:36;;;;;;;;;;;;;;;20.78;41.49;94987.50;10477181;28;2620;-54
2023/11/11 22:28:36;;;;;;;;;;;;;;;20.75;41.98;94982.06;10477059;28;2698;-52
2023/11/11 22:33:37;;;;;;;;;;;;;;;20.73;41.90;94979.69;10468001;28;2552;-51
2023/11/11 22:38:37;;;;;;;;;;;;;;;20.69;41.62;94984.00;10467913;28;2692;-54
2023/11/11 22:43:37;;;;;;;;;;;;;;;20.68;42.34;94992.19;10477573;28;4711;-52
2023/11/11 22:48:38;;;;;;;;;;;;;;;20.64;43.39;94981.47;10475686;28;2626;-53
2023/11/11 22:53:38;;;;;;;;;;;;;;;20.66;43.35;94981.16;10472907;28;2174;-54
2023/11/11 22:58:38;;;;;;;;;;;;;;;20.69;42.86;94973.44;10480328;28;1472;-51
2023/11/11 23:03:39;;;;;;;;;;;;;;;20.70;42.20;94982.94;10484015;28;2358;-51
2023/11/11 23:08:39;;;;;;;;;;;;;;;20.71;41.87;94976.56;10478479;28;1956;-53
2023/11/11 23:13:41;;;;;;;;;;;;;;;20.69;42.48;94978.72;10480005;28;1775;-53
2023/11/11 23:18:41;;;;;;;;;;;;;;;20.69;42.58;94973.44;10463223;28;1630;-52
2023/11/11 23:23:42;;;;;;;;;;;;;;;20.69;41.65;94977.97;10477109;28;1432;-48
2023/11/11 23:28:42;;;;;;;;;;;;;;;20.71;41.67;94981.09;10462286;28;1976;-50
2023/11/11 23:33:43;;;;;;;;;;;;;;;20.70;41.57;94968.97;10476494;28;1455;-53
2023/11/11 23:38:43;;;;;;;;;;;;;;;20.66;41.48;94979.31;10480224;28;1424;-55
2023/11/11 23:43:43;;;;;;;;;;;;;;;20.69;42.14;94972.69;10491448;28;4680;-54
2023/11/11 23:48:43;;;;;;;;;;;;;;;20.64;41.83;94976.19;10484187;28;1983;-51
2023/11/11 23:53:44;;;;;;;;;;;;;;;20.68;42.19;94973.75;10482045;28;1562;-49
2023/11/11 23:58:44;;;;;;;;;;;;;;;20.67;41.37;94967.69;10488270;28;1503;-52
